• Join FlightAware (Why Join?)
  • Login
  • US Flag 
12:39AM EDT


 

Airport Tracker/Info


-or-


 

Live Flight TrackerFlight Track Log ✈ SWA279 ✈ 24-May-2013 ✈ KRNO - KPDX

Flight Track Log - Related Links

Times and Time Zones

All times are in EDT time to prevent confusion due to time zone crossing. See the SWA279 flight status page for this flight to view local times or setup timezone preferences in your user account.

Time Position Orientation Groundspeed Altitude Reporting Facility
EDT Latitude Longitude Course Direction KTS MPH feet Rate Location/Type
09:40PM 39.5333 -119.7667 349° North 172 198 6,100  Level Northern Cal TRACON
09:41PM 39.6000 -119.7833 349° North 235 270 7,900 2,460 Climbing Northern Cal TRACON
09:42PM 39.6667 -119.8000 349° North 250 288 11,100 2,460 Climbing Northern Cal TRACON
09:42PM 39.6850 -119.8097 338° Northwest 233 268 11,500 2,160 Climbing Oakland Center
09:43PM 39.7811 -119.8442 345° North 320 368 14,100 2,880 Climbing Oakland Center
09:44PM 39.8700 -119.9117 330° Northwest 357 411 17,500 3,240 Climbing Oakland Center
09:45PM 39.9622 -119.9833 329° Northwest 379 436 20,700 2,940 Climbing Oakland Center
09:46PM 40.0567 -120.0581 329° Northwest 393 452 23,600 2,520 Climbing Oakland Center
09:47PM 40.1542 -120.1322 330° Northwest 404 465 25,900 2,040 Climbing Oakland Center
09:48PM 40.2550 -120.2111 329° Northwest 417 480 27,900 1,860 Climbing Oakland Center
09:49PM 40.3625 -120.2942 330° Northwest 444 511 29,800 1,920 Climbing Oakland Center
09:50PM 40.4433 -120.3522 331° Northwest 443 510 31,400 2,820 Climbing Seattle Center
09:50PM 40.4931 -120.3836 334° Northwest 439 505 32,700 2,700 Climbing Oakland Center
09:51PM 40.5753 -120.4314 336° Northwest 434 499 34,200 1,860 Climbing Seattle Center
09:52PM 40.6931 -120.4731 345° North 437 503 36,000 1,500 Climbing Seattle Center
09:52PM 40.7147 -120.4819 343° North 439 505 36,200 1,140 Climbing Oakland Center
09:53PM 40.8339 -120.5142 348° North 441 507 37,500 1,020 Climbing Oakland Center
09:54PM 40.9317 -120.5419 348° North 443 510 38,000 240 Climbing Seattle Center
09:55PM 41.0367 -120.6167 332° Northwest 431 496 38,000  Level Seattle Center
09:55PM 41.0544 -120.6350 322° Northwest 428 493 38,000  Level Oakland Center
09:56PM 41.1425 -120.6869 336° Northwest 427 491 38,000  Level Seattle Center
09:57PM 41.2492 -120.7567 334° Northwest 429 494 38,000  Level Seattle Center
09:58PM 41.3547 -120.8261 334° Northwest 426 490 38,000  Level Seattle Center
09:59PM 41.4589 -120.8958 333° Northwest 420 483 38,000  Level Seattle Center
10:00PM 41.5636 -120.9653 334° Northwest 420 483 38,000  Level Seattle Center
10:01PM 41.6708 -121.0372 333° Northwest 429 494 38,000  Level Seattle Center
10:02PM 41.7778 -121.1064 334° Northwest 430 495 38,000  Level Seattle Center
10:03PM 41.8842 -121.1778 333° Northwest 429 494 38,000  Level Seattle Center
10:04PM 42.0117 -121.2642 333° Northwest 429 494 38,000  Level Seattle Center
10:05PM 42.1183 -121.3344 334° Northwest 430 495 38,000  Level Seattle Center
10:06PM 42.2283 -121.4094 333° Northwest 435 501 38,000  Level Seattle Center
10:07PM 42.3331 -121.4800 334° Northwest 436 502 38,000  Level Seattle Center
10:08PM 42.4394 -121.5508 334° Northwest 432 497 38,000  Level Seattle Center
10:09PM 42.5469 -121.6253 333° Northwest 437 503 38,000  Level Seattle Center
10:10PM 42.6547 -121.6972 334° Northwest 434 499 38,000  Level Seattle Center
10:11PM 42.7603 -121.7708 333° Northwest 429 494 38,000  Level Seattle Center
10:12PM 42.8664 -121.8433 333° Northwest 429 494 38,000  Level Seattle Center
10:13PM 42.9717 -121.9172 333° Northwest 426 490 38,000  Level Seattle Center
10:14PM 43.0972 -122.0028 334° Northwest 422 486 38,000  Level Seattle Center
10:15PM 43.2036 -122.0764 333° Northwest 427 491 38,000  Level Seattle Center
10:16PM 43.2989 -122.1431 333° Northwest 433 498 38,000  Level Seattle Center
10:17PM 43.4058 -122.2167 333° Northwest 431 496 38,000  Level Seattle Center
10:18PM 43.5333 -122.3075 333° Northwest 431 496 38,000  Level Seattle Center
10:19PM 43.6400 -122.3833 333° Northwest 431 496 38,000  Level Seattle Center
10:21PM 43.7456 -122.4608 332° Northwest 429 494 38,000  Level Seattle Center
10:22PM 43.8522 -122.5369 333° Northwest 433 498 38,000 -960 Level Seattle Center
10:23PM 43.9581 -122.6136 332° Northwest 428 493 36,100 -2,460 Descending Seattle Center
10:24PM 44.0631 -122.6883 333° Northwest 426 490 33,000 -3,120 Descending Seattle Center
10:25PM 44.1750 -122.7478 339° North 435 501 29,800 -3,180 Descending Seattle Center
10:26PM 44.3006 -122.7369 North 453 521 26,700 -2,880 Descending Seattle Center
10:27PM 44.4264 -122.7247 North 443 510 24,000 -2,580 Descending Seattle Center
10:28PM 44.5425 -122.7153 North 426 490 21,500 -2,460 Descending Seattle Center
10:29PM 44.6528 -122.7039 North 404 465 19,100 -2,400 Descending Seattle Center
10:30PM 44.7581 -122.6922 North 387 445 16,700 -2,700 Descending Seattle Center
10:30PM 44.8108 -122.6886 North 380 437 15,400 -2,520 Descending Seattle Center
10:31PM 44.8628 -122.6822 North 381 438 14,200 -2,460 Descending Seattle Center
10:31PM 44.9039 -122.6783 North 372 428 13,200 -2,280 Descending Seattle Center
10:32PM 44.9619 -122.6733 North 367 422 11,900 -2,220 Descending Seattle Center
10:32PM 45.0014 -122.6667 North 355 409 11,000 -1,800 Descending Seattle Center
10:33PM 45.0775 -122.6608 North 353 406 10,100 -1,140 Descending Seattle Center
10:34PM 45.1567 -122.6517 North 293 337 9,000 -1,140 Descending Seattle Center
10:35PM 45.2361 -122.6442 North 288 331 7,800 -1,320 Descending Seattle Center
10:36PM 45.2847 -122.5603 51° Northeast 284 327 6,400 -1,380 Descending Seattle Center
10:37PM 45.3267 -122.4672 57° Northeast 282 325 5,100 -1,380 Descending Seattle Center
10:38PM 45.3811 -122.3942 43° Northeast 277 319 3,700 -1,200 Descending Seattle Center
10:39PM 45.4481 -122.3464 27° Northeast 272 313 2,700 -660 Descending Seattle Center
10:40PM 45.5042 -122.3761 340° North 243 280 2,400 -180 Descending Seattle Center
10:40PM 45.5172 -122.4011 307° West 204 235 2,500 -420 Climbing Seattle Center
10:41PM 45.5344 -122.4397 302° West 220 253 2,000 -840 Descending Seattle Center
10:42PM 45.5581 -122.5017 299° West 196 226 1,100 -900 Descending Seattle Center
10:43PM 45.5778 -122.5522 299° West 175 201 300 -840 Descending Seattle Center